Time;durP1;ratioP1;P1;durP2;ratioP2;P2;SDS_P1;SDS_P2;PMS_P1;PMS_P2;Temp;Humidity;BMP_temperature;BMP_pressure;BME280_temperature;BME280_humidity;BME280_pressure;Samples;Min_cycle;Max_cycle;Signal;HPM_P1;HPM_P2
2021/08/14 00:00:21;;;;;;;13.00;11.60;;;22.70;84.00;;;22.92;68.53;95482.97;5053777;28;20241;-84
2021/08/14 00:02:49;;;;;;;15.30;11.77;;;22.70;83.90;;;23.02;68.36;95502.59;5053416;28;20195;-84
2021/08/14 00:05:17;;;;;;;14.15;11.65;;;22.70;84.00;;;23.06;68.67;95497.53;5037350;28;20233;-84
2021/08/14 00:07:44;;;;;;;12.68;11.07;;;22.80;84.10;;;23.13;68.14;95506.16;5053645;28;20223;-84
2021/08/14 00:10:11;;;;;;;12.93;11.57;;;22.80;84.00;;;23.13;67.93;95499.97;5036550;28;20225;-82
2021/08/14 00:12:39;;;;;;;13.65;11.68;;;22.80;83.70;;;23.14;68.07;95496.22;5043132;28;20650;-84
2021/08/14 00:15:08;;;;;;;12.18;10.98;;;22.80;83.70;;;23.13;67.47;95500.78;5036778;28;20296;-85
2021/08/14 00:17:36;;;;;;;12.30;10.90;;;22.90;83.80;;;23.13;67.51;95505.31;5036922;28;20195;-84
2021/08/14 00:20:05;;;;;;;14.80;11.77;;;22.90;83.80;;;23.09;67.32;95499.69;5053330;28;20266;-84
2021/08/14 00:22:32;;;;;;;15.77;11.52;;;22.90;83.80;;;23.05;67.37;95497.78;5033117;28;20298;-84
2021/08/14 00:24:59;;;;;;;14.15;11.23;;;22.90;83.40;;;23.01;67.65;95497.50;5032361;28;20217;-84
2021/08/14 00:27:26;;;;;;;14.15;11.60;;;22.90;83.50;;;22.99;67.30;95497.72;5052824;28;20218;-85
2021/08/14 00:29:54;;;;;;;13.50;11.52;;;22.90;83.40;;;22.94;67.40;95496.91;5050850;28;20285;-84
2021/08/14 00:32:21;;;;;;;14.32;11.90;;;22.80;83.30;;;22.86;67.80;95487.47;5052249;28;20221;-82
2021/08/14 00:34:48;;;;;;;14.70;12.40;;;22.80;83.30;;;22.86;67.27;95487.47;5052232;28;20305;-84
2021/08/14 00:37:15;;;;;;;14.93;11.80;;;22.80;83.10;;;22.84;67.31;95490.41;5053077;28;20199;-85
2021/08/14 00:39:42;;;;;;;14.00;12.07;;;22.70;83.00;;;22.82;67.40;95492.53;5036623;28;20269;-84
2021/08/14 00:42:09;;;;;;;14.27;11.43;;;22.70;83.10;;;22.81;67.57;95490.09;5052569;28;20195;-84
2021/08/14 00:44:36;;;;;;;13.50;12.13;;;22.70;83.10;;;22.78;67.45;95491.44;5030928;28;20663;-84
2021/08/14 00:47:05;;;;;;;13.35;12.00;;;22.70;83.10;;;22.77;67.08;95492.47;5016711;28;20231;-85
2021/08/14 00:49:33;;;;;;;13.02;11.25;;;22.70;83.10;;;22.75;67.22;95486.56;5033086;28;20194;-84
2021/08/14 00:52:01;;;;;;;15.13;12.40;;;22.70;83.00;;;22.73;67.66;95491.38;5023151;28;20201;-85
2021/08/14 00:54:28;;;;;;;13.77;12.05;;;22.60;83.30;;;22.70;67.30;95482.00;5052591;28;20239;-84
2021/08/14 00:56:57;;;;;;;13.38;11.43;;;22.60;83.20;;;22.73;67.35;95485.22;5036365;28;20222;-82
2021/08/14 00:59:30;;;;;;;13.00;11.65;;;22.60;83.20;;;22.74;67.42;95481.50;5052201;28;20287;-84
2021/08/14 01:02:06;;;;;;;15.70;12.80;;;22.60;83.30;;;22.68;67.47;95476.09;5036367;28;20203;-85
2021/08/14 01:04:35;;;;;;;13.50;11.73;;;22.60;83.20;;;22.69;67.35;95483.06;5051808;28;20202;-84
2021/08/14 01:07:03;;;;;;;13.52;12.18;;;22.60;83.20;;;22.68;67.56;95476.09;5052679;28;20217;-84
2021/08/14 01:09:30;;;;;;;14.10;12.65;;;22.50;83.10;;;22.66;67.46;95480.09;5035050;28;20202;-85
2021/08/14 01:11:59;;;;;;;13.52;11.95;;;22.50;83.00;;;22.66;67.20;95469.41;5052467;28;20186;-84
2021/08/14 01:14:26;;;;;;;15.70;12.05;;;22.50;83.10;;;22.63;67.28;95476.06;5052148;28;20199;-84
2021/08/14 01:16:54;;;;;;;13.25;11.57;;;22.50;83.00;;;22.59;67.25;95472.28;5032374;28;20188;-84
2021/08/14 01:19:22;;;;;;;13.75;12.27;;;22.50;83.10;;;22.56;67.19;95475.47;5045569;28;20707;-85
2021/08/14 01:21:51;;;;;;;13.43;12.02;;;22.50;83.00;;;22.58;67.07;95477.88;5035572;28;20294;-84
2021/08/14 01:24:21;;;;;;;13.63;12.23;;;22.50;83.00;;;22.52;67.21;95467.16;5035496;28;20538;-85
2021/08/14 01:26:49;;;;;;;14.93;12.50;;;22.40;82.90;;;22.52;66.99;95471.66;5035282;28;20224;-84
2021/08/14 01:29:17;;;;;;;15.52;11.63;;;22.40;82.80;;;22.49;66.68;95470.31;5051801;28;20202;-85
2021/08/14 01:31:44;;;;;;;14.90;12.40;;;22.40;82.80;;;22.47;67.04;95475.13;5031861;28;20570;-85
2021/08/14 01:34:12;;;;;;;13.13;11.82;;;22.40;82.80;;;22.44;67.08;95472.16;5032445;28;20180;-84
2021/08/14 01:36:39;;;;;;;13.43;12.05;;;22.40;82.90;;;22.46;67.24;95472.69;5027600;28;20684;-85
2021/08/14 01:39:06;;;;;;;15.95;12.90;;;22.40;82.90;;;22.44;67.02;95478.28;5035575;28;20218;-83
2021/08/14 01:41:34;;;;;;;13.90;12.50;;;22.30;82.80;;;22.44;67.02;95477.50;5051805;28;20207;-84
2021/08/14 01:44:07;;;;;;;15.13;12.95;;;22.30;82.80;;;22.43;67.21;95475.88;5035499;28;20203;-85
2021/08/14 01:46:40;;;;;;;13.85;12.32;;;22.30;82.90;;;22.38;66.93;95473.97;5034104;28;20250;-84
2021/08/14 01:49:09;;;;;;;13.48;12.07;;;22.30;82.80;;;22.32;66.93;95464.25;5052528;28;20280;-84
2021/08/14 01:51:36;;;;;;;14.10;12.70;;;22.30;82.80;;;22.33;66.92;95479.22;5051897;28;20311;-85
2021/08/14 01:54:05;;;;;;;14.25;12.40;;;22.20;82.70;;;22.28;66.86;95476.50;5031370;28;20221;-84
2021/08/14 01:56:33;;;;;;;13.85;12.27;;;22.20;82.70;;;22.23;66.97;95479.94;5028812;28;20215;-84
2021/08/14 01:59:01;;;;;;;14.05;12.57;;;22.20;82.60;;;22.19;67.34;95481.47;5051916;28;20245;-85
2021/08/14 02:01:28;;;;;;;15.85;12.95;;;22.20;82.70;;;22.18;67.55;95485.19;5051952;28;20307;-84
2021/08/14 02:03:57;;;;;;;14.55;12.98;;;22.20;82.80;;;22.13;67.48;95482.47;5048403;28;20209;-83
2021/08/14 02:06:27;;;;;;;13.48;12.10;;;22.10;82.70;;;22.13;67.57;95485.97;5026474;28;20233;-84
2021/08/14 02:08:55;;;;;;;15.18;12.73;;;22.10;82.90;;;22.11;67.24;95482.75;5015444;28;20303;-84
2021/08/14 02:11:33;;;;;;;16.35;12.77;;;22.00;83.70;;;22.07;67.29;95484.31;4999762;28;20392;-84
2021/08/14 02:14:01;;;;;;;15.02;12.50;;;22.00;82.80;;;22.01;66.74;95472.75;5021648;28;20528;-84
2021/08/14 02:16:29;;;;;;;15.63;13.00;;;22.00;82.70;;;21.98;67.48;95475.13;5051259;28;20329;-84
2021/08/14 02:18:58;;;;;;;14.05;12.55;;;22.00;82.70;;;21.95;67.02;95480.94;5029583;28;20684;-84
2021/08/14 02:21:26;;;;;;;13.65;11.93;;;22.00;82.70;;;21.89;67.20;95485.44;5020277;28;20657;-85
2021/08/14 02:23:54;;;;;;;13.18;11.77;;;21.90;82.60;;;21.85;67.46;95479.78;5051624;28;20196;-84
2021/08/14 02:26:21;;;;;;;13.25;11.85;;;21.90;82.60;;;21.81;67.12;95480.53;5051597;28;20215;-84
2021/08/14 02:28:49;;;;;;;14.68;12.95;;;21.80;82.60;;;21.78;67.53;95479.16;5051542;28;20299;-84
2021/08/14 02:31:16;;;;;;;13.48;12.05;;;21.80;83.00;;;21.76;67.59;95478.59;5034578;28;20222;-85
2021/08/14 02:33:44;;;;;;;16.27;13.13;;;21.70;82.90;;;21.76;67.40;95473.25;5051544;28;20582;-85
2021/08/14 02:36:12;;;;;;;14.80;13.23;;;21.70;82.90;;;21.78;68.33;95473.81;5050649;28;20703;-84
2021/08/14 02:38:40;;;;;;;14.48;12.85;;;21.70;82.90;;;21.85;68.01;95478.97;5055478;28;20728;-84
2021/08/14 02:41:08;;;;;;;13.82;12.48;;;21.80;83.10;;;21.81;68.32;95470.63;5051820;28;20279;-85
2021/08/14 02:43:36;;;;;;;17.50;13.05;;;21.70;83.10;;;21.89;68.34;95486.22;5019499;28;20232;-82
2021/08/14 02:46:05;;;;;;;15.00;12.93;;;21.80;83.10;;;21.89;67.48;95485.44;5032244;28;20227;-84
2021/08/14 02:48:33;;;;;;;14.25;12.45;;;21.80;83.00;;;21.83;68.20;95475.75;5019724;28;20258;-84
2021/08/14 02:51:01;;;;;;;13.63;12.15;;;21.80;83.00;;;21.90;68.01;95482.50;5055449;28;20207;-85
2021/08/14 02:53:28;;;;;;;17.27;13.07;;;21.80;83.00;;;21.87;68.44;95475.00;5038339;28;20206;-84
2021/08/14 02:55:55;;;;;;;14.00;12.20;;;21.80;83.10;;;21.93;68.58;95477.75;5055271;28;20216;-85
2021/08/14 02:58:22;;;;;;;13.55;12.15;;;21.90;83.40;;;21.96;68.71;95482.56;5054776;28;20200;-84
2021/08/14 03:00:50;;;;;;;13.88;12.48;;;21.80;83.50;;;21.98;68.81;95493.81;5055750;28;20219;-83
2021/08/14 03:03:17;;;;;;;14.60;12.68;;;21.90;84.10;;;22.01;68.92;95478.09;5035687;28;20201;-83
2021/08/14 03:05:45;;;;;;;13.48;12.02;;;21.90;83.70;;;22.02;69.17;95479.72;5004071;28;20228;-84
2021/08/14 03:08:12;;;;;;;13.18;11.75;;;21.90;83.60;;;22.05;69.09;95478.41;5030764;28;20216;-84
2021/08/14 03:10:41;;;;;;;15.20;12.90;;;21.90;83.60;;;22.07;68.93;95479.75;5035082;28;20224;-84
2021/08/14 03:13:11;;;;;;;13.70;12.23;;;21.90;84.50;;;22.07;69.16;95486.97;5042172;28;20226;-85
2021/08/14 03:15:38;;;;;;;13.63;12.25;;;22.00;83.90;;;22.11;68.72;95480.06;5053127;28;20224;-85
2021/08/14 03:18:06;;;;;;;15.23;12.77;;;22.00;83.60;;;22.11;68.97;95488.09;5053353;28;20198;-85
2021/08/14 03:20:33;;;;;;;17.38;12.63;;;22.00;83.90;;;22.12;69.00;95487.03;5069738;28;20221;-85
2021/08/14 03:23:02;;;;;;;14.68;13.05;;;22.00;83.80;;;22.16;69.34;95493.47;5053390;28;20191;-84
2021/08/14 03:25:29;;;;;;;15.48;12.75;;;22.10;83.90;;;22.20;69.07;95493.78;5051298;28;20581;-84
2021/08/14 03:27:57;;;;;;;14.32;12.93;;;22.00;83.90;;;22.22;68.81;95497.03;5053776;28;20213;-84
2021/08/14 03:30:24;;;;;;;14.07;11.60;;;22.00;83.80;;;22.21;68.59;95498.88;5054227;28;20232;-85
2021/08/14 03:32:52;;;;;;;12.82;11.52;;;22.00;83.50;;;22.17;68.69;95486.28;5052585;28;20694;-85
2021/08/14 03:35:21;;;;;;;16.25;12.50;;;22.10;83.50;;;22.19;68.63;95495.66;5052325;28;20307;-85
2021/08/14 03:37:48;;;;;;;13.57;12.18;;;22.10;84.10;;;22.17;68.47;95496.97;5036108;28;20195;-84
2021/08/14 03:40:16;;;;;;;15.55;12.80;;;22.10;83.20;;;22.13;68.35;95495.84;5069334;28;20213;-84
2021/08/14 03:42:43;;;;;;;16.33;11.35;;;22.10;83.20;;;22.12;68.26;95494.22;5051807;28;20235;-84
2021/08/14 03:45:12;;;;;;;14.15;12.25;;;22.10;83.20;;;22.10;68.45;95504.38;5035229;28;20224;-84
2021/08/14 03:47:39;;;;;;;14.15;11.63;;;22.00;83.10;;;22.09;68.55;95502.75;5053353;28;20232;-84
2021/08/14 03:50:07;;;;;;;11.93;10.77;;;22.00;83.10;;;22.07;67.89;95511.03;5053917;28;20214;-84
2021/08/14 03:52:35;;;;;;;13.93;11.27;;;22.00;83.20;;;22.04;68.31;95508.84;5018903;28;20297;-84
2021/08/14 03:55:06;;;;;;;13.02;11.73;;;22.00;83.10;;;22.01;68.62;95504.00;5028594;28;20271;-82
2021/08/14 03:57:34;;;;;;;15.48;12.60;;;22.00;83.20;;;22.04;68.77;95508.84;5027528;28;20624;-84
2021/08/14 04:00:01;;;;;;;13.73;12.32;;;22.00;83.30;;;22.05;69.28;95510.47;5053854;28;20243;-85
2021/08/14 04:02:30;;;;;;;13.80;11.90;;;22.00;83.60;;;22.04;68.99;95509.63;5050041;28;20572;-85
2021/08/14 04:04:59;;;;;;;14.15;12.65;;;22.00;83.40;;;22.02;69.16;95509.09;5033219;28;20220;-85
2021/08/14 04:07:29;;;;;;;15.02;12.18;;;22.00;83.50;;;22.01;69.09;95510.16;5053642;28;20251;-84
2021/08/14 04:09:57;;;;;;;12.30;11.10;;;22.00;83.40;;;22.00;68.60;95505.84;5037398;28;20686;-85
2021/08/14 04:12:24;;;;;;;15.52;13.05;;;22.00;83.50;;;21.99;68.92;95506.13;5015139;28;20253;-85
2021/08/14 04:14:51;;;;;;;13.90;12.40;;;22.00;83.50;;;22.00;69.15;95511.19;5033868;28;20217;-85
2021/08/14 04:17:31;;;;;;;13.02;11.73;;;22.00;83.60;;;22.01;69.24;95520.03;5034074;28;20207;-85
2021/08/14 04:20:05;;;;;;;13.23;11.93;;;22.00;83.60;;;22.00;68.94;95505.84;5017993;28;20233;-86
2021/08/14 04:22:32;;;;;;;14.02;12.35;;;21.90;83.60;;;22.03;69.46;95509.88;5038145;28;20192;-86
2021/08/14 04:24:59;;;;;;;14.98;13.38;;;21.90;83.80;;;22.06;69.36;95512.88;5037459;28;20316;-86
2021/08/14 04:27:26;;;;;;;15.40;12.50;;;22.00;84.90;;;22.10;69.23;95517.72;5053706;28;20229;-85
2021/08/14 04:29:53;;;;;;;13.95;12.45;;;21.90;84.10;;;22.13;69.08;95507.34;5053737;28;20220;-86
2021/08/14 04:32:21;;;;;;;15.07;13.18;;;22.00;84.20;;;22.19;69.38;95521.56;5036502;28;20644;-85
2021/08/14 04:34:50;;;;;;;15.05;13.30;;;22.00;84.40;;;22.25;69.47;95520.56;5036700;28;20696;-85
2021/08/14 04:37:17;;;;;;;13.55;12.10;;;22.00;84.50;;;22.27;69.19;95518.44;5037057;28;20215;-85
2021/08/14 04:39:44;;;;;;;14.18;12.77;;;22.10;84.50;;;22.30;68.82;95509.94;5020212;28;20703;-86
2021/08/14 04:42:11;;;;;;;15.57;11.40;;;22.10;84.30;;;22.36;68.87;95522.28;5035551;28;20197;-85
2021/08/14 04:44:39;;;;;;;15.18;12.43;;;22.20;84.40;;;22.40;69.18;95527.97;5053330;28;20212;-84
2021/08/14 04:47:06;;;;;;;12.90;11.68;;;22.20;84.30;;;22.41;68.58;95526.09;5052833;28;20185;-85
2021/08/14 04:49:33;;;;;;;13.27;12.07;;;22.30;84.30;;;22.45;69.19;95530.69;5036711;28;20285;-86
2021/08/14 04:52:00;;;;;;;13.63;12.32;;;22.30;84.40;;;22.49;69.02;95531.00;5044534;28;20191;-86
2021/08/14 04:54:27;;;;;;;14.82;12.45;;;22.30;84.40;;;22.52;69.42;95525.13;5033251;28;20255;-86
2021/08/14 04:56:55;;;;;;;15.02;12.82;;;22.30;84.50;;;22.61;69.37;95523.63;5000065;28;20196;-86
2021/08/14 04:59:22;;;;;;;15.35;12.57;;;22.30;84.60;;;22.67;69.19;95516.47;5046893;28;20234;-86
2021/08/14 05:01:49;;;;;;;14.88;13.25;;;22.40;84.80;;;22.75;69.19;95523.22;5047883;28;20241;-87
2021/08/14 05:04:19;;;;;;;12.98;11.57;;;22.50;84.90;;;22.79;69.45;95522.47;5034672;28;20208;-86
2021/08/14 05:06:46;;;;;;;17.92;13.88;;;22.50;84.80;;;22.89;69.19;95520.91;5040880;28;20218;-85
2021/08/14 05:09:13;;;;;;;14.15;12.63;;;22.60;85.70;;;22.98;69.41;95524.75;5035297;28;20235;-86
2021/08/14 05:11:40;;;;;;;14.77;12.73;;;22.70;85.00;;;23.07;69.94;95517.06;5052826;28;20253;-86
2021/08/14 05:14:07;;;;;;;16.48;12.38;;;22.70;85.30;;;23.18;69.78;95521.47;5069505;28;20568;-85
2021/08/14 05:16:36;;;;;;;14.80;12.60;;;22.80;85.30;;;23.27;69.54;95521.78;5019326;28;20220;-87
2021/08/14 05:19:04;;;;;;;14.85;12.90;;;22.90;85.40;;;23.37;69.36;95511.13;5053178;28;20195;-86
2021/08/14 05:21:33;;;;;;;14.70;13.23;;;23.00;85.30;;;23.44;69.16;95508.25;5016945;28;20211;-86
2021/08/14 05:24:02;;;;;;;14.55;12.95;;;23.10;85.40;;;23.56;69.42;95511.53;5032606;28;20247;-86
2021/08/14 05:26:30;;;;;;;13.60;12.20;;;23.10;85.30;;;23.65;69.08;95501.91;5027496;28;20228;-86
2021/08/14 05:28:58;;;;;;;14.15;12.50;;;23.20;85.40;;;23.77;68.89;95500.91;5032724;28;20326;-86
2021/08/14 05:31:25;;;;;;;15.15;13.30;;;23.30;85.50;;;23.90;68.97;95491.56;5034158;28;20217;-87
2021/08/14 05:33:52;;;;;;;15.48;12.98;;;23.40;85.60;;;24.03;68.49;95493.81;5033062;28;20209;-86
2021/08/14 05:36:19;;;;;;;16.15;13.05;;;23.60;85.50;;;24.14;68.39;95495.47;5000161;28;20212;-86
2021/08/14 05:38:46;;;;;;;17.23;12.07;;;23.60;85.10;;;24.24;68.22;95494.69;5032777;28;20625;-86
2021/08/14 05:41:13;;;;;;;13.07;11.48;;;23.70;84.80;;;24.33;68.31;95496.81;5000401;28;20321;-86
2021/08/14 05:43:40;;;;;;;13.48;11.48;;;23.80;84.90;;;24.43;67.89;95494.19;5016192;28;20231;-87
2021/08/14 05:46:08;;;;;;;11.48;10.38;;;23.90;84.80;;;24.51;67.71;95482.94;5032468;28;20220;-85
2021/08/14 05:48:36;;;;;;;13.40;11.50;;;24.00;84.60;;;24.58;68.15;95483.50;5027715;28;20227;-85
2021/08/14 05:51:06;;;;;;;13.73;11.85;;;24.10;84.70;;;24.66;67.48;95484.03;5007939;28;20219;-85
2021/08/14 05:53:34;;;;;;;13.00;11.25;;;24.10;84.70;;;24.73;67.18;95493.44;5051347;28;20203;-83
2021/08/14 05:56:01;;;;;;;12.25;11.00;;;24.20;84.70;;;24.81;67.20;95502.03;5022546;28;20219;-85
2021/08/14 05:58:29;;;;;;;11.35;10.15;;;24.30;84.80;;;24.82;66.57;95499.06;5019284;28;20256;-85
2021/08/14 06:00:56;;;;;;;13.10;11.68;;;24.40;84.50;;;24.89;66.61;95509.53;5047066;28;20282;-84
2021/08/14 06:03:24;;;;;;;11.82;10.73;;;24.40;84.50;;;24.94;66.69;95512.22;5051599;28;20233;-85
2021/08/14 06:05:51;;;;;;;11.77;10.57;;;24.50;84.30;;;25.00;66.55;95513.03;5051515;28;20211;-83
2021/08/14 06:08:18;;;;;;;11.80;10.60;;;24.50;84.30;;;25.10;66.86;95526.44;5014945;28;20236;-84
2021/08/14 06:10:45;;;;;;;13.73;11.45;;;24.60;84.10;;;25.16;66.70;95521.88;5045228;28;20351;-84
2021/08/14 06:13:12;;;;;;;11.55;10.38;;;24.60;84.30;;;25.22;66.61;95512.75;5050644;28;20215;-84
2021/08/14 06:15:39;;;;;;;11.52;10.45;;;24.70;84.30;;;25.33;66.40;95521.59;5051308;28;20235;-84
2021/08/14 06:18:07;;;;;;;13.00;10.65;;;24.80;84.30;;;25.42;66.39;95522.69;5051102;28;20188;-84
2021/08/14 06:20:34;;;;;;;12.10;10.85;;;24.90;84.10;;;25.49;66.08;95525.91;5047900;28;20729;-84
2021/08/14 06:23:02;;;;;;;13.45;12.05;;;24.90;83.50;;;25.61;65.60;95527.47;5018723;28;20228;-85
2021/08/14 06:25:29;;;;;;;13.07;11.38;;;25.00;83.00;;;25.70;65.04;95529.34;5047953;28;20235;-85
2021/08/14 06:27:56;;;;;;;12.77;11.48;;;25.10;82.70;;;25.75;63.96;95525.03;5051143;28;20224;-84
2021/08/14 06:30:23;;;;;;;14.00;11.38;;;25.20;82.30;;;25.85;64.48;95525.81;5050452;28;20259;-84
2021/08/14 06:32:50;;;;;;;11.77;10.57;;;25.30;82.20;;;25.93;64.39;95526.31;5051084;28;20204;-84
2021/08/14 06:35:19;;;;;;;12.25;10.73;;;25.40;82.10;;;26.01;64.11;95521.19;5046556;28;20221;-84
2021/08/14 06:37:46;;;;;;;12.30;11.05;;;25.40;81.60;;;25.99;63.30;95520.66;5014915;28;20211;-83
2021/08/14 06:40:14;;;;;;;12.02;10.82;;;25.50;80.80;;;26.08;63.02;95528.19;5014711;28;20220;-84
2021/08/14 06:42:42;;;;;;;12.82;11.52;;;25.60;80.90;;;26.10;62.32;95529.50;5024272;28;20199;-84
2021/08/14 06:45:11;;;;;;;12.45;10.93;;;25.60;80.30;;;26.14;62.84;95532.44;5029963;28;20219;-84
2021/08/14 06:47:38;;;;;;;13.15;10.73;;;25.70;80.60;;;26.19;62.73;95525.13;5017602;28;20200;-83
2021/08/14 06:50:06;;;;;;;13.93;12.52;;;25.70;80.80;;;26.21;61.43;95528.38;5034007;28;20652;-85
2021/08/14 06:52:35;;;;;;;13.20;11.88;;;25.70;79.80;;;26.21;61.52;95523.00;5032199;28;20205;-85
2021/08/14 06:55:04;;;;;;;12.15;10.95;;;25.80;80.00;;;26.29;61.94;95523.50;5050785;28;20815;-82
2021/08/14 06:57:31;;;;;;;13.30;11.75;;;25.80;80.00;;;26.31;61.16;95519.44;5030753;28;20205;-85
2021/08/14 06:59:59;;;;;;;11.98;10.70;;;25.90;79.60;;;26.41;62.08;95523.16;4998510;28;20660;-84
2021/08/14 07:02:27;;;;;;;13.65;11.38;;;25.90;79.80;;;26.46;61.79;95518.53;5047080;28;20204;-84
2021/08/14 07:04:54;;;;;;;11.48;10.38;;;26.00;79.70;;;26.53;62.06;95520.94;5014611;28;20634;-84
2021/08/14 07:07:22;;;;;;;12.40;11.05;;;26.00;79.70;;;26.60;61.81;95526.81;5049173;28;20565;-84
2021/08/14 07:09:49;;;;;;;14.45;11.73;;;26.10;79.80;;;26.64;60.60;95525.16;5047038;28;20320;-85
2021/08/14 07:12:16;;;;;;;13.73;12.13;;;26.10;79.10;;;26.68;60.35;95531.63;4999073;28;20716;-85
2021/08/14 07:14:43;;;;;;;15.90;11.75;;;26.10;78.90;;;26.72;60.13;95531.03;5037702;28;20302;-84
2021/08/14 07:17:11;;;;;;;13.18;11.45;;;26.20;78.50;;;26.75;60.10;95528.63;5016972;28;20189;-84
2021/08/14 07:19:38;;;;;;;12.60;11.30;;;26.30;78.50;;;26.84;60.03;95535.03;5033558;28;20249;-84
2021/08/14 07:22:05;;;;;;;11.68;10.48;;;26.30;78.50;;;26.93;60.51;95534.44;5050693;28;20286;-84
2021/08/14 07:24:33;;;;;;;11.60;10.38;;;26.30;78.50;;;27.03;60.75;95531.66;5054179;28;20274;-84
2021/08/14 07:27:00;;;;;;;13.98;11.55;;;26.40;78.50;;;27.08;59.74;95520.03;5054520;28;20198;-85
2021/08/14 07:29:28;;;;;;;12.07;10.88;;;26.50;78.20;;;27.16;60.53;95519.44;5037645;28;20216;-84
2021/08/14 07:31:55;;;;;;;12.60;11.40;;;26.50;78.00;;;27.21;60.25;95522.09;5053570;28;20215;-84
2021/08/14 07:34:22;;;;;;;12.63;10.50;;;26.60;78.10;;;27.26;60.51;95524.72;5037395;28;20219;-85
2021/08/14 07:36:50;;;;;;;12.10;10.90;;;26.70;78.40;;;27.32;60.09;95525.50;5054788;28;20203;-84
2021/08/14 07:39:17;;;;;;;12.35;11.15;;;26.70;78.60;;;27.35;59.65;95518.72;5053731;28;20287;-83
2021/08/14 07:41:44;;;;;;;12.68;11.13;;;26.80;78.00;;;27.33;59.69;95525.19;5054231;28;20261;-85
2021/08/14 07:44:12;;;;;;;12.88;11.23;;;26.80;77.60;;;27.37;59.39;95525.44;5037940;28;20198;-84
2021/08/14 07:46:48;;;;;;;12.27;10.98;;;26.90;77.10;;;27.43;59.69;95528.94;5038607;28;20590;-85
2021/08/14 07:49:16;;;;;;;12.32;11.10;;;26.90;77.40;;;27.50;59.41;95521.28;5032420;28;20700;-85
2021/08/14 07:51:43;;;;;;;11.90;10.70;;;26.90;77.80;;;27.66;59.63;95521.13;5047584;28;20221;-84
2021/08/14 07:54:10;;;;;;;13.80;12.00;;;27.00;77.80;;;27.77;57.87;95520.75;5033769;28;20538;-84
2021/08/14 07:56:37;;;;;;;13.38;11.70;;;27.10;77.10;;;27.92;58.21;95524.38;5033917;28;20308;-84
2021/08/14 07:59:05;;;;;;;12.57;11.23;;;27.20;77.30;;;28.06;57.59;95521.78;5045644;28;20218;-83
2021/08/14 08:01:32;;;;;;;11.82;10.63;;;27.30;76.80;;;28.12;57.49;95517.94;5036553;28;20306;-84
2021/08/14 08:03:59;;;;;;;12.60;10.45;;;27.40;76.50;;;28.18;56.23;95532.97;5037026;28;20229;-84
2021/08/14 08:06:26;;;;;;;12.07;10.82;;;27.40;75.60;;;28.19;55.78;95526.47;5053352;28;20577;-85
2021/08/14 08:08:53;;;;;;;14.35;11.10;;;27.50;75.40;;;28.20;56.25;95517.28;5053789;28;20224;-85
2021/08/14 08:11:20;;;;;;;12.23;10.20;;;27.60;75.30;;;28.24;55.54;95522.91;5024682;28;20223;-84
2021/08/14 08:13:47;;;;;;;20.13;11.68;;;27.60;75.10;;;28.26;56.38;95512.66;5015965;28;20214;-85
2021/08/14 08:16:15;;;;;;;12.88;10.57;;;27.70;75.10;;;28.35;56.90;95527.06;5031536;28;20261;-84
2021/08/14 08:18:42;;;;;;;12.13;10.82;;;27.70;75.20;;;28.40;55.89;95512.72;5043882;28;20252;-85
2021/08/14 08:21:09;;;;;;;12.32;10.35;;;27.80;75.10;;;28.47;56.00;95515.06;5033557;28;20312;-85
2021/08/14 08:23:36;;;;;;;11.38;10.25;;;27.80;75.40;;;28.49;53.95;95513.69;5017179;28;20212;-85
2021/08/14 08:26:04;;;;;;;12.32;11.05;;;27.90;73.60;;;28.53;54.59;95511.19;5026893;28;20709;-84
2021/08/14 08:28:31;;;;;;;11.68;10.55;;;27.90;73.40;;;28.51;54.43;95502.59;5037046;28;20245;-85
2021/08/14 08:30:59;;;;;;;13.32;10.52;;;28.00;73.10;;;28.56;53.63;95513.31;5020218;28;20238;-85
2021/08/14 08:33:26;;;;;;;14.82;10.75;;;28.00;72.90;;;28.57;54.27;95498.72;5053391;28;20474;-85
2021/08/14 08:35:53;;;;;;;12.43;10.05;;;28.00;73.10;;;28.69;55.26;95509.09;5028207;28;20226;-86
2021/08/14 08:38:21;;;;;;;11.63;10.40;;;28.00;73.60;;;28.73;54.36;95507.41;5053287;28;20273;-85
2021/08/14 08:40:50;;;;;;;11.13;10.02;;;28.10;73.20;;;28.84;54.09;95510.75;5053007;28;20626;-85
2021/08/14 08:43:17;;;;;;;12.40;9.85;;;28.20;72.90;;;28.85;52.77;95510.47;5036795;28;20201;-85
2021/08/14 08:45:45;;;;;;;13.90;9.82;;;28.20;72.10;;;28.92;53.40;95510.88;5019611;28;20235;-85
2021/08/14 08:48:19;;;;;;;10.93;9.82;;;28.30;72.30;;;29.03;53.00;95514.22;5025530;28;20288;-84
2021/08/14 08:50:47;;;;;;;11.05;9.70;;;28.30;71.70;;;29.10;53.12;95510.34;5049733;28;20224;-85
2021/08/14 08:53:15;;;;;;;11.00;9.82;;;28.40;71.80;;;29.15;52.98;95505.66;5030892;28;20197;-86
2021/08/14 08:55:42;;;;;;;11.32;10.10;;;28.40;72.00;;;29.20;52.34;95502.88;5048378;28;20229;-84
2021/08/14 08:58:09;;;;;;;10.95;9.40;;;28.50;71.10;;;29.26;52.81;95505.47;5015919;28;20205;-82
2021/08/14 09:00:37;;;;;;;11.65;9.93;;;28.60;71.60;;;29.31;52.61;95505.41;5035770;28;20244;-85
2021/08/14 09:03:14;;;;;;;10.95;9.80;;;28.60;71.10;;;29.36;52.54;95502.66;5052049;28;20225;-84
2021/08/14 09:05:49;;;;;;;11.63;9.77;;;28.70;70.70;;;29.44;52.61;95493.84;5036363;28;20330;-85
2021/08/14 09:08:18;;;;;;;9.55;8.23;;;28.70;70.90;;;29.52;53.10;95493.16;5052847;28;20403;-86
2021/08/14 09:10:46;;;;;;;9.70;8.80;;;28.80;71.60;;;29.59;52.82;95494.66;5035431;28;20323;-85
2021/08/14 09:13:20;;;;;;;14.52;9.48;;;28.80;71.40;;;29.70;52.78;95487.97;5069542;28;20207;-86
2021/08/14 09:15:48;;;;;;;10.05;9.00;;;28.90;71.40;;;29.78;52.09;95483.75;5035214;28;20336;-85
2021/08/14 09:18:17;;;;;;;10.68;9.15;;;29.00;71.30;;;29.85;51.88;95489.56;5068718;28;20254;-85
2021/08/14 09:20:54;;;;;;;10.73;9.65;;;29.00;70.90;;;29.93;52.46;95493.47;5036106;28;20298;-85
2021/08/14 09:23:24;;;;;;;10.60;9.00;;;29.10;70.40;;;29.99;51.94;95484.97;5049546;28;20608;-86
2021/08/14 09:25:58;;;;;;;9.60;8.60;;;29.20;70.20;;;30.08;52.46;95487.78;5035767;28;20357;-86
2021/08/14 09:28:34;;;;;;;12.43;8.98;;;29.30;70.70;;;30.18;51.75;95484.84;5051692;28;20245;-85
2021/08/14 09:31:04;;;;;;;10.18;8.85;;;29.40;70.30;;;30.26;52.50;95483.34;5051343;28;20270;-85
2021/08/14 09:33:36;;;;;;;11.23;10.00;;;29.50;70.50;;;30.29;50.87;95493.53;5051797;28;20261;-85
2021/08/14 09:36:06;;;;;;;10.25;9.13;;;29.50;69.50;;;30.26;50.73;95490.63;5051979;28;20228;-85
2021/08/14 09:38:53;;;;;;;11.00;9.82;;;29.60;70.10;;;30.21;50.37;95488.84;5052252;28;20276;-85
2021/08/14 09:41:23;;;;;;;11.52;9.13;;;29.60;70.00;;;30.14;50.14;95485.75;5034367;28;20219;-85
2021/08/14 09:43:53;;;;;;;9.55;8.57;;;29.60;68.80;;;30.08;51.29;95495.06;5052152;28;20638;-85
2021/08/14 09:46:21;;;;;;;11.82;8.45;;;29.60;69.30;;;30.10;51.23;95490.16;5031217;28;20217;-85
2021/08/14 09:48:56;;;;;;;12.10;8.77;;;29.60;69.70;;;30.14;50.58;95488.47;5021570;28;20199;-85
2021/08/14 09:51:33;;;;;;;8.60;7.70;;;29.60;68.40;;;30.24;49.91;95488.25;5048074;28;20297;-86
2021/08/14 09:54:02;;;;;;;9.52;8.32;;;29.60;68.90;;;30.38;49.98;95493.59;5014611;28;20287;-85
2021/08/14 09:56:36;;;;;;;9.57;8.68;;;29.60;68.70;;;30.56;47.85;95480.28;5031913;28;20210;-85
2021/08/14 09:59:05;;;;;;;10.23;8.68;;;29.70;68.30;;;30.72;48.06;95486.13;5039273;28;20216;-85
2021/08/14 10:01:37;;;;;;;9.88;8.82;;;29.80;67.90;;;30.86;46.78;95476.03;5025638;28;20652;-85
2021/08/14 10:04:05;;;;;;;8.85;7.88;;;29.90;66.90;;;31.03;47.29;95469.94;5031994;28;20647;-85
2021/08/14 10:06:33;;;;;;;10.50;8.68;;;30.00;66.60;;;31.13;45.54;95461.56;5015278;28;20366;-85
2021/08/14 10:09:01;;;;;;;8.82;7.85;;;30.20;66.10;;;31.23;45.15;95462.44;5032612;28;20222;-86
2021/08/14 10:11:28;;;;;;;10.13;7.63;;;30.30;65.60;;;31.23;45.12;95459.72;5015860;28;20766;-86